createdAt,value
2018-03-28T00:00:14.716Z,35.20
2018-03-28T00:02:40.776Z,34.50
2018-03-28T00:05:06.832Z,40.83
2018-03-28T00:07:32.915Z,38.80
2018-03-28T00:09:59.728Z,36.58
2018-03-28T00:12:25.795Z,36.95
2018-03-28T00:14:51.853Z,39.72
2018-03-28T00:17:17.938Z,39.53
2018-03-28T00:19:44.000Z,41.75
2018-03-28T00:22:10.095Z,46.97
2018-03-28T00:24:36.202Z,48.08
2018-03-28T00:27:03.014Z,38.90
2018-03-28T00:29:29.084Z,36.70
2018-03-28T00:31:55.944Z,42.65
2018-03-28T00:34:22.744Z,42.42
2018-03-28T00:36:48.817Z,37.20
2018-03-28T00:39:14.901Z,38.30
2018-03-28T00:41:40.959Z,40.38
2018-03-28T00:44:07.037Z,47.30
2018-03-28T00:46:33.936Z,40.72
2018-03-28T00:49:00.056Z,36.55
2018-03-28T00:51:36.181Z,44.83
2018-03-28T00:54:02.260Z,45.00
2018-03-28T00:56:28.322Z,43.95
2018-03-28T00:58:54.392Z,44.78
2018-03-28T01:01:20.468Z,42.90
2018-03-28T01:03:47.328Z,41.28
2018-03-28T01:06:14.153Z,43.10
2018-03-28T01:08:40.204Z,43.53
2018-03-28T01:11:06.276Z,45.97
2018-03-28T01:13:32.340Z,41.90
2018-03-28T01:15:58.404Z,40.88
2018-03-28T01:18:24.474Z,40.83
2018-03-28T01:20:50.561Z,44.72
2018-03-28T01:23:16.620Z,40.50
2018-03-28T01:25:42.697Z,40.58
2018-03-28T01:28:08.753Z,42.38
2018-03-28T01:30:34.823Z,39.45
2018-03-28T01:33:00.891Z,47.55
2018-03-28T01:35:27.685Z,38.55
2018-03-28T01:37:53.763Z,40.28
2018-03-28T01:40:20.567Z,43.55
2018-03-28T01:42:47.386Z,40.53
2018-03-28T01:45:14.255Z,37.47
2018-03-28T01:47:40.328Z,38.53
2018-03-28T01:50:06.386Z,39.35
2018-03-28T01:52:32.449Z,42.25
2018-03-28T01:54:59.246Z,38.63
2018-03-28T01:57:25.326Z,42.17
2018-03-28T01:59:51.384Z,40.17
2018-03-28T02:02:18.175Z,39.00
2018-03-28T02:04:44.251Z,38.05
2018-03-28T02:07:10.315Z,32.70
2018-03-28T02:09:37.182Z,35.10
2018-03-28T02:12:03.234Z,36.92
2018-03-28T02:14:29.301Z,34.30
2018-03-28T02:16:55.350Z,37.83
2018-03-28T02:19:21.414Z,33.20
2018-03-28T02:21:48.207Z,35.20
2018-03-28T02:24:14.280Z,33.70
2018-03-28T02:26:40.342Z,30.58
2018-03-28T02:29:07.168Z,32.58
2018-03-28T02:31:33.239Z,34.92
2018-03-28T02:33:59.332Z,29.90
2018-03-28T02:36:25.400Z,30.33
2018-03-28T02:38:51.452Z,27.37
2018-03-28T02:41:18.274Z,34.17
2018-03-28T02:43:44.413Z,33.50
2018-03-28T02:46:10.450Z,29.40
2018-03-28T02:48:36.531Z,29.15
2018-03-28T02:51:02.610Z,29.23
2018-03-28T02:53:28.680Z,29.80
2018-03-28T02:55:55.507Z,25.17
2018-03-28T02:58:21.589Z,28.52
2018-03-28T03:00:47.675Z,25.00
2018-03-28T03:03:13.747Z,25.45
2018-03-28T03:05:41.658Z,23.12
2018-03-28T03:08:07.731Z,22.95
2018-03-28T03:10:33.826Z,24.27
2018-03-28T03:12:59.894Z,31.27
2018-03-28T03:15:25.979Z,20.52
2018-03-28T03:17:52.804Z,23.75
2018-03-28T03:20:18.900Z,24.20
2018-03-28T03:22:44.971Z,22.25
2018-03-28T03:25:11.052Z,17.95
2018-03-28T03:27:37.952Z,22.65
2018-03-28T03:30:04.029Z,18.55
2018-03-28T03:32:30.122Z,16.92
2018-03-28T03:34:56.194Z,19.00
2018-03-28T03:37:22.286Z,16.02
2018-03-28T03:39:48.337Z,19.00
2018-03-28T03:42:14.466Z,17.55
2018-03-28T03:44:40.526Z,16.15
2018-03-28T03:47:06.599Z,16.45
2018-03-28T03:49:33.407Z,17.23
2018-03-28T03:51:59.470Z,14.32
2018-03-28T03:54:25.539Z,15.57
2018-03-28T03:56:51.607Z,13.30
2018-03-28T03:59:17.710Z,13.82
2018-03-28T04:01:44.514Z,13.52
2018-03-28T04:04:11.314Z,14.10
2018-03-28T04:06:38.129Z,14.60
2018-03-28T04:09:05.156Z,13.60
2018-03-28T04:11:31.222Z,12.60
2018-03-28T04:13:57.298Z,14.13
2018-03-28T04:16:24.099Z,17.27
2018-03-28T04:18:50.157Z,15.60
2018-03-28T04:21:16.210Z,14.68
2018-03-28T04:23:42.291Z,15.25
2018-03-28T04:26:08.355Z,13.73
2018-03-28T04:28:34.436Z,16.15
2018-03-28T04:31:00.509Z,15.02
2018-03-28T04:33:26.574Z,15.27
2018-03-28T04:35:52.642Z,16.20
2018-03-28T04:38:18.715Z,15.57
2018-03-28T04:40:44.775Z,16.33
2018-03-28T04:43:10.866Z,17.65
2018-03-28T04:45:37.679Z,15.32
2018-03-28T04:48:03.759Z,17.85
2018-03-28T04:50:30.574Z,20.42
2018-03-28T04:52:56.659Z,17.12
2018-03-28T04:55:23.476Z,18.45
2018-03-28T04:57:49.564Z,18.52
2018-03-28T05:00:15.661Z,20.90
2018-03-28T05:02:41.746Z,20.75
2018-03-28T05:05:07.814Z,17.90
2018-03-28T05:07:33.894Z,17.62
2018-03-28T05:09:59.966Z,19.33
2018-03-28T05:12:26.051Z,19.17
2018-03-28T05:14:52.144Z,17.48
2018-03-28T05:17:18.225Z,22.25
2018-03-28T05:19:44.307Z,18.23
2018-03-28T05:22:10.471Z,16.65
2018-03-28T05:24:36.542Z,20.77
2018-03-28T05:27:02.651Z,17.23
2018-03-28T05:29:28.717Z,20.25
2018-03-28T05:31:54.785Z,21.60
2018-03-28T05:34:20.881Z,17.40
2018-03-28T05:36:46.982Z,18.77
2018-03-28T05:39:13.066Z,17.02
2018-03-28T05:41:39.139Z,23.10
2018-03-28T05:44:05.210Z,20.23
2018-03-28T05:46:31.276Z,19.15
2018-03-28T05:48:57.344Z,17.58
2018-03-28T05:51:23.405Z,20.65
2018-03-28T05:53:49.496Z,16.45
2018-03-28T05:56:15.572Z,17.30
2018-03-28T05:58:41.656Z,17.95
2018-03-28T06:01:07.730Z,17.52
2018-03-28T06:03:34.535Z,16.73
2018-03-28T06:06:00.603Z,18.33
2018-03-28T06:08:27.418Z,16.02
2018-03-28T06:10:53.490Z,15.05
2018-03-28T06:13:19.553Z,17.10
2018-03-28T06:15:45.615Z,13.07
2018-03-28T06:18:11.690Z,13.45
2018-03-28T06:20:37.751Z,13.15
2018-03-28T06:23:04.550Z,11.25
2018-03-28T06:25:30.635Z,12.32
2018-03-28T06:27:57.442Z,11.82
2018-03-28T06:30:23.516Z,10.85
2018-03-28T06:32:49.588Z,10.90
2018-03-28T06:35:15.658Z,10.55
2018-03-28T06:37:41.718Z,9.65
2018-03-28T06:40:07.798Z,12.60
2018-03-28T06:42:33.850Z,12.75
2018-03-28T06:44:59.939Z,11.85
2018-03-28T06:47:26.112Z,8.73
2018-03-28T06:49:52.194Z,11.43
2018-03-28T06:52:18.275Z,8.65
2018-03-28T06:54:45.117Z,8.30
2018-03-28T06:57:11.948Z,8.43
2018-03-28T06:59:38.073Z,6.43
2018-03-28T07:02:04.130Z,7.55
2018-03-28T07:04:30.219Z,5.78
2018-03-28T07:06:56.291Z,9.13
2018-03-28T07:09:22.356Z,7.30
2018-03-28T07:11:48.431Z,7.62
2018-03-28T07:14:14.506Z,9.27
2018-03-28T07:16:40.593Z,8.32
2018-03-28T07:19:06.667Z,4.78
2018-03-28T07:21:32.750Z,10.70
2018-03-28T07:23:59.564Z,8.98
2018-03-28T07:26:25.661Z,9.55
2018-03-28T07:28:51.741Z,5.93
2018-03-28T07:31:17.838Z,7.20
2018-03-28T07:33:43.903Z,9.23
2018-03-28T07:36:09.978Z,10.75
2018-03-28T07:38:36.059Z,9.98
2018-03-28T07:41:02.154Z,9.77
2018-03-28T07:43:28.242Z,10.10
2018-03-28T07:45:54.301Z,12.48
2018-03-28T07:48:20.375Z,11.10
2018-03-28T07:50:47.195Z,10.75
2018-03-28T07:53:13.272Z,11.63
2018-03-28T07:55:40.087Z,11.90
2018-03-28T07:58:06.168Z,10.80
2018-03-28T08:00:32.974Z,8.00
2018-03-28T08:02:59.060Z,9.43
2018-03-28T08:05:25.870Z,8.63
2018-03-28T08:07:51.951Z,10.48
2018-03-28T08:10:18.757Z,9.27
2018-03-28T08:12:44.861Z,11.18
2018-03-28T08:15:10.931Z,8.85
2018-03-28T08:17:36.999Z,10.10
2018-03-28T08:20:03.091Z,10.10
2018-03-28T08:22:29.164Z,8.63
2018-03-28T08:24:55.244Z,14.05
2018-03-28T08:27:21.311Z,9.68
2018-03-28T08:29:47.391Z,8.43
2018-03-28T08:32:13.457Z,7.60
2018-03-28T08:34:39.539Z,7.70
2018-03-28T08:37:05.614Z,9.43
2018-03-28T08:39:32.461Z,7.10
2018-03-28T08:41:59.284Z,7.68
2018-03-28T08:44:25.387Z,8.75
2018-03-28T08:46:51.492Z,6.62
2018-03-28T08:49:18.315Z,10.82
2018-03-28T08:51:44.411Z,7.22
2018-03-28T08:54:10.504Z,8.50
2018-03-28T08:56:36.595Z,9.75
2018-03-28T08:59:02.707Z,8.30
2018-03-28T09:01:29.554Z,10.30
2018-03-28T09:03:56.388Z,10.85
2018-03-28T09:06:22.498Z,10.45
2018-03-28T09:08:48.574Z,7.57
2018-03-28T09:11:14.676Z,9.32
2018-03-28T09:13:40.782Z,9.75
2018-03-28T09:16:06.916Z,9.70
2018-03-28T09:18:33.010Z,8.15
2018-03-28T09:20:59.109Z,7.75
2018-03-28T09:23:25.209Z,7.93
2018-03-28T09:25:52.060Z,6.15
2018-03-28T09:28:18.907Z,9.93
2018-03-28T09:30:44.996Z,7.85
2018-03-28T09:33:11.098Z,7.82
2018-03-28T09:35:37.921Z,7.55
2018-03-28T09:38:04.020Z,10.77
2018-03-28T09:40:30.112Z,9.57
2018-03-28T09:42:56.212Z,12.93
2018-03-28T09:45:22.296Z,8.05
2018-03-28T09:47:48.378Z,10.57
2018-03-28T09:50:14.436Z,7.00
2018-03-28T09:52:40.519Z,6.20
2018-03-28T09:55:07.327Z,10.60
2018-03-28T09:57:33.399Z,8.15
2018-03-28T10:00:00.239Z,9.50
2018-03-28T10:02:30.218Z,7.03
2018-03-28T10:04:59.073Z,12.68
2018-03-28T10:07:25.157Z,7.87
2018-03-28T10:09:51.244Z,7.57
2018-03-28T10:12:17.306Z,11.77
2018-03-28T10:14:43.391Z,6.10
2018-03-28T10:17:09.446Z,8.10
2018-03-28T10:19:35.536Z,6.45
2018-03-28T10:22:02.341Z,6.15
2018-03-28T10:24:28.427Z,6.87
2018-03-28T10:26:54.504Z,9.82
2018-03-28T10:29:20.586Z,7.25
2018-03-28T10:31:47.401Z,12.02
2018-03-28T10:34:13.521Z,8.93
2018-03-28T10:36:39.586Z,13.27
2018-03-28T10:39:05.659Z,5.93
2018-03-28T10:41:32.499Z,6.80
2018-03-28T10:43:58.619Z,7.20
2018-03-28T10:46:24.718Z,6.55
2018-03-28T10:48:50.800Z,7.10
2018-03-28T10:51:16.891Z,4.78
2018-03-28T10:53:42.978Z,4.50
2018-03-28T10:56:09.091Z,7.53
2018-03-28T10:58:35.208Z,4.68
2018-03-28T11:01:01.286Z,5.50
2018-03-28T11:03:27.375Z,4.93
2018-03-28T11:05:53.481Z,7.00
2018-03-28T11:08:19.564Z,8.88
2018-03-28T11:10:45.663Z,4.10
2018-03-28T11:13:11.739Z,5.00
2018-03-28T11:15:37.827Z,5.07
2018-03-28T11:18:03.932Z,6.53
2018-03-28T11:20:30.049Z,6.10
2018-03-28T11:22:56.102Z,5.18
2018-03-28T11:25:22.196Z,7.37
2018-03-28T11:27:48.280Z,5.65
2018-03-28T11:30:14.561Z,5.60
2018-03-28T11:32:41.420Z,7.75
2018-03-28T11:35:07.463Z,6.82
2018-03-28T11:37:34.298Z,8.85
2018-03-28T11:40:00.384Z,8.05
2018-03-28T11:42:26.486Z,9.18
2018-03-28T11:44:52.562Z,4.70
2018-03-28T11:47:18.650Z,5.15
2018-03-28T11:49:44.852Z,4.90
2018-03-28T11:52:10.934Z,7.22
2018-03-28T11:54:37.066Z,3.95
2018-03-28T11:57:03.259Z,6.25
2018-03-28T11:59:29.345Z,4.43
2018-03-28T12:01:55.433Z,3.72
2018-03-28T12:04:22.295Z,5.35
2018-03-28T12:06:48.440Z,4.55
2018-03-28T12:09:14.483Z,6.25
2018-03-28T12:11:40.578Z,6.78
2018-03-28T12:14:06.661Z,8.07
2018-03-28T12:16:32.794Z,4.62
2018-03-28T12:18:58.870Z,3.67
2018-03-28T12:21:24.984Z,3.72
2018-03-28T12:23:51.066Z,8.57
2018-03-28T12:26:17.202Z,4.55
2018-03-28T12:28:44.034Z,5.60
2018-03-28T12:31:10.109Z,6.30
2018-03-28T12:33:36.934Z,3.03
2018-03-28T12:36:03.028Z,6.53
2018-03-28T12:38:29.114Z,8.40
2018-03-28T12:40:55.183Z,12.90
2018-03-28T12:43:21.295Z,5.07
2018-03-28T12:45:48.119Z,5.70
2018-03-28T12:48:14.218Z,6.23
2018-03-28T12:50:40.314Z,4.13
2018-03-28T12:53:06.426Z,5.63
2018-03-28T12:55:32.674Z,3.60
2018-03-28T12:57:58.626Z,5.03
2018-03-28T13:00:24.734Z,6.80
2018-03-28T13:02:50.814Z,3.87
2018-03-28T13:05:17.669Z,5.83
2018-03-28T13:07:44.490Z,3.40
2018-03-28T13:10:10.647Z,3.23
2018-03-28T13:12:36.683Z,4.30
2018-03-28T13:15:02.774Z,4.20
2018-03-28T13:17:29.621Z,6.17
2018-03-28T13:19:55.729Z,5.53
2018-03-28T13:22:21.818Z,4.60
2018-03-28T13:24:47.968Z,3.97
2018-03-28T13:27:14.734Z,5.50
2018-03-28T13:29:40.825Z,3.40
2018-03-28T13:32:06.930Z,4.23
2018-03-28T13:34:33.032Z,4.67
2018-03-28T13:36:59.172Z,4.70
2018-03-28T13:39:25.250Z,3.57
2018-03-28T13:41:51.349Z,6.57
2018-03-28T13:44:17.456Z,3.77
2018-03-28T13:46:43.544Z,4.77
2018-03-28T13:49:09.610Z,4.87
2018-03-28T13:51:36.437Z,3.47
2018-03-28T13:54:02.546Z,4.17
2018-03-28T13:56:28.627Z,3.30
2018-03-28T13:58:54.744Z,6.67
2018-03-28T14:01:20.839Z,6.60
2018-03-28T14:03:46.936Z,6.13
2018-03-28T14:06:13.012Z,8.07
2018-03-28T14:08:39.090Z,4.67
2018-03-28T14:11:05.166Z,3.73
2018-03-28T14:13:31.998Z,4.10
2018-03-28T14:15:58.087Z,4.00
2018-03-28T14:18:24.199Z,7.60
2018-03-28T14:20:51.019Z,6.00
2018-03-28T14:23:17.106Z,7.87
2018-03-28T14:25:43.183Z,3.60
2018-03-28T14:28:09.278Z,7.07
2018-03-28T14:30:35.355Z,5.27
2018-03-28T14:33:01.489Z,4.50
2018-03-28T14:35:27.599Z,6.90
2018-03-28T14:37:53.681Z,4.23
2018-03-28T14:40:19.755Z,5.47
2018-03-28T14:42:54.591Z,5.60
2018-03-28T14:45:12.668Z,5.80
2018-03-28T14:47:38.834Z,7.45
2018-03-28T14:50:04.911Z,11.75
2018-03-28T14:52:30.993Z,5.07
2018-03-28T14:54:57.064Z,8.70
2018-03-28T14:57:23.174Z,5.10
2018-03-28T14:59:49.980Z,5.13
2018-03-28T15:02:17.113Z,6.00
2018-03-28T15:04:43.221Z,4.97
2018-03-28T15:07:09.305Z,9.20
2018-03-28T15:09:35.500Z,18.95
2018-03-28T15:12:01.565Z,70.67
2018-03-28T15:14:27.671Z,28.27
2018-03-28T15:16:53.738Z,9.00
2018-03-28T15:19:19.819Z,7.90
2018-03-28T15:21:46.629Z,11.25
2018-03-28T15:24:12.752Z,7.50
2018-03-28T15:26:38.818Z,6.43
2018-03-28T15:29:04.942Z,5.60
2018-03-28T15:31:31.046Z,9.07
2018-03-28T15:33:57.132Z,6.80
2018-03-28T15:36:23.220Z,13.38
2018-03-28T15:38:49.312Z,9.93
2018-03-28T15:41:15.374Z,5.67
2018-03-28T15:43:42.214Z,5.70
2018-03-28T15:46:08.332Z,7.53
2018-03-28T15:48:34.456Z,7.70
2018-03-28T15:51:00.605Z,7.33
2018-03-28T15:53:26.698Z,9.37
2018-03-28T15:55:53.534Z,4.40
2018-03-28T15:58:20.387Z,6.37
2018-03-28T16:00:47.287Z,8.05
2018-03-28T16:03:13.377Z,7.07
2018-03-28T16:05:39.561Z,8.65
2018-03-28T16:08:05.656Z,8.33
2018-03-28T16:10:31.765Z,6.05
2018-03-28T16:12:57.856Z,5.70
2018-03-28T16:15:23.964Z,10.35
2018-03-28T16:17:50.151Z,18.25
2018-03-28T16:20:16.438Z,11.02
2018-03-28T16:22:42.529Z,8.23
2018-03-28T16:25:08.697Z,7.32
2018-03-28T16:27:34.866Z,9.13
2018-03-28T16:30:01.788Z,13.18
2018-03-28T16:32:27.882Z,13.65
2018-03-28T16:34:54.711Z,12.90
2018-03-28T16:37:20.928Z,9.93
2018-03-28T16:39:47.037Z,16.08
2018-03-28T16:42:13.195Z,14.80
2018-03-28T16:44:39.323Z,13.57
2018-03-28T16:47:05.463Z,8.43
2018-03-28T16:49:31.542Z,8.75
2018-03-28T16:51:57.668Z,11.60
2018-03-28T16:54:23.760Z,7.15
2018-03-28T16:56:49.920Z,7.75
2018-03-28T16:59:16.025Z,11.07
2018-03-28T17:01:42.917Z,5.82
2018-03-28T17:04:09.070Z,7.20
2018-03-28T17:06:35.179Z,8.75
2018-03-28T17:09:01.333Z,11.85
2018-03-28T17:11:27.527Z,10.77
2018-03-28T17:13:54.382Z,5.90
2018-03-28T17:16:21.198Z,11.12
2018-03-28T17:18:47.319Z,9.90
2018-03-28T17:21:13.430Z,5.90
2018-03-28T17:23:40.267Z,8.93
2018-03-28T17:26:07.184Z,6.93
2018-03-28T17:28:33.310Z,6.65
2018-03-28T17:30:59.512Z,5.68
2018-03-28T17:33:26.398Z,10.27
2018-03-28T17:35:52.493Z,13.57
2018-03-28T17:38:19.410Z,8.52
2018-03-28T17:40:45.558Z,10.32
2018-03-28T17:43:11.743Z,8.93
2018-03-28T17:45:38.641Z,12.90
2018-03-28T17:48:04.770Z,8.15
2018-03-28T17:50:30.880Z,6.70
2018-03-28T17:52:57.725Z,6.32
2018-03-28T17:55:23.935Z,8.25
2018-03-28T17:57:50.063Z,8.52
2018-03-28T18:00:16.307Z,9.20
2018-03-28T18:02:42.422Z,7.78
2018-03-28T18:05:08.625Z,7.62
2018-03-28T18:07:35.690Z,9.85
2018-03-28T18:10:02.644Z,13.93
2018-03-28T18:12:29.493Z,12.18
2018-03-28T18:14:55.680Z,12.20
2018-03-28T18:17:21.837Z,10.43
2018-03-28T18:19:47.992Z,14.35
2018-03-28T18:22:14.112Z,9.32
2018-03-28T18:24:40.318Z,9.77
2018-03-28T18:27:06.414Z,10.18
2018-03-28T18:29:32.507Z,7.53
2018-03-28T18:31:58.621Z,7.47
2018-03-28T18:34:25.493Z,7.10
2018-03-28T18:36:51.611Z,8.82
2018-03-28T18:39:18.436Z,8.55
2018-03-28T18:41:44.544Z,6.72
2018-03-28T18:44:10.660Z,10.18
2018-03-28T18:46:36.831Z,8.25
2018-03-28T18:49:02.929Z,8.75
2018-03-28T18:51:29.011Z,6.00
2018-03-28T18:53:55.158Z,5.75
2018-03-28T18:56:21.299Z,7.47
2018-03-28T18:58:48.172Z,6.28
2018-03-28T19:01:14.310Z,5.35
2018-03-28T19:03:40.426Z,4.68
2018-03-28T19:06:06.556Z,6.93
2018-03-28T19:08:32.776Z,5.28
2018-03-28T19:10:58.890Z,4.85
2018-03-28T19:13:25.703Z,4.80
2018-03-28T19:15:51.906Z,5.18
2018-03-28T19:18:17.988Z,4.85
2018-03-28T19:20:44.076Z,4.50
2018-03-28T19:23:10.224Z,5.12
2018-03-28T19:25:36.308Z,4.28
2018-03-28T19:28:02.434Z,4.40
2018-03-28T19:30:28.622Z,10.88
2018-03-28T19:32:54.781Z,3.78
2018-03-28T19:35:20.894Z,4.43
2018-03-28T19:37:47.775Z,4.12
2018-03-28T19:40:13.969Z,4.03
2018-03-28T19:42:40.063Z,4.30
2018-03-28T19:45:06.195Z,8.02
2018-03-28T19:47:32.468Z,5.43
2018-03-28T19:49:58.622Z,5.75
2018-03-28T19:52:24.770Z,5.97
2018-03-28T19:54:51.627Z,4.75
2018-03-28T19:57:18.546Z,5.75
2018-03-28T19:59:44.684Z,6.03
2018-03-28T20:02:10.818Z,5.60
2018-03-28T20:04:36.930Z,4.90
2018-03-28T20:07:03.127Z,6.00
2018-03-28T20:09:29.275Z,4.90
2018-03-28T20:11:56.120Z,5.00
2018-03-28T20:14:22.324Z,4.18
2018-03-28T20:16:48.482Z,4.57
2018-03-28T20:19:14.618Z,4.28
2018-03-28T20:21:40.759Z,5.28
2018-03-28T20:24:07.026Z,5.22
2018-03-28T20:26:33.130Z,4.35
2018-03-28T20:28:59.281Z,4.57
2018-03-28T20:31:25.355Z,3.55
2018-03-28T20:33:52.201Z,3.90
2018-03-28T20:36:18.370Z,3.80
2018-03-28T20:38:44.479Z,4.00
2018-03-28T20:41:10.655Z,3.62
2018-03-28T20:43:36.755Z,4.05
2018-03-28T20:46:02.863Z,3.42
2018-03-28T20:48:29.022Z,3.12
2018-03-28T20:50:55.152Z,2.92
2018-03-28T20:53:21.234Z,3.17
2018-03-28T20:55:48.087Z,3.10
2018-03-28T20:58:14.898Z,3.10
2018-03-28T21:00:41.076Z,2.70
2018-03-28T21:03:07.138Z,3.42
2018-03-28T21:05:33.269Z,2.80
2018-03-28T21:07:59.347Z,2.80
2018-03-28T21:10:25.414Z,3.65
2018-03-28T21:12:52.319Z,3.47
2018-03-28T21:15:18.446Z,2.55
2018-03-28T21:17:44.638Z,2.87
2018-03-28T21:20:10.718Z,3.03
2018-03-28T21:22:36.818Z,3.22
2018-03-28T21:25:02.913Z,3.15
2018-03-28T21:27:29.138Z,3.03
2018-03-28T21:29:55.293Z,4.35
2018-03-28T21:32:21.602Z,2.65
2018-03-28T21:34:47.703Z,4.50
2018-03-28T21:37:13.767Z,3.17
2018-03-28T21:39:40.564Z,3.03
2018-03-28T21:42:06.674Z,2.85
2018-03-28T21:44:33.514Z,3.45
2018-03-28T21:47:00.407Z,2.72
2018-03-28T21:49:26.490Z,2.65
2018-03-28T21:51:52.587Z,1.48
2018-03-28T21:54:18.699Z,2.75
2018-03-28T21:56:44.779Z,1.80
2018-03-28T21:59:10.859Z,2.05
2018-03-28T22:01:37.661Z,2.65
2018-03-28T22:04:03.749Z,1.75
2018-03-28T22:06:30.583Z,1.70
2018-03-28T22:08:56.692Z,3.92
2018-03-28T22:11:23.486Z,1.37
2018-03-28T22:13:49.571Z,2.00
2018-03-28T22:16:15.643Z,1.35
2018-03-28T22:18:41.763Z,1.75
2018-03-28T22:21:07.907Z,1.50
2018-03-28T22:23:34.006Z,1.40
2018-03-28T22:26:00.131Z,1.80
2018-03-28T22:28:26.962Z,1.60
2018-03-28T22:30:53.063Z,1.70
2018-03-28T22:33:19.171Z,1.45
2018-03-28T22:35:45.977Z,1.77
2018-03-28T22:38:12.067Z,2.00
2018-03-28T22:40:38.142Z,1.85
2018-03-28T22:43:04.244Z,2.92
2018-03-28T22:45:31.074Z,1.85
2018-03-28T22:47:57.135Z,1.83
2018-03-28T22:50:23.951Z,2.35
2018-03-28T22:52:50.072Z,2.22
2018-03-28T22:55:16.179Z,2.05
2018-03-28T22:57:42.235Z,2.65
2018-03-28T23:00:08.296Z,1.85
2018-03-28T23:02:34.396Z,2.47
2018-03-28T23:05:00.486Z,2.17
2018-03-28T23:07:26.586Z,1.80
2018-03-28T23:09:52.642Z,3.72
2018-03-28T23:12:18.896Z,2.00
2018-03-28T23:14:44.958Z,1.95
2018-03-28T23:17:11.770Z,1.87
2018-03-28T23:19:37.902Z,2.70
2018-03-28T23:22:03.978Z,2.37
2018-03-28T23:24:30.065Z,2.47
2018-03-28T23:26:56.185Z,2.33
2018-03-28T23:29:22.254Z,2.85
2018-03-28T23:31:48.367Z,2.87
2018-03-28T23:34:14.481Z,4.43
2018-03-28T23:36:41.315Z,3.15
2018-03-28T23:39:07.409Z,3.90
2018-03-28T23:41:33.491Z,4.40
2018-03-28T23:43:59.618Z,3.20
2018-03-28T23:46:25.707Z,4.72
2018-03-28T23:48:51.865Z,3.22
2018-03-28T23:51:17.985Z,3.37
2018-03-28T23:53:44.086Z,3.87
2018-03-28T23:56:10.198Z,4.72
2018-03-28T23:58:36.272Z,4.75
